createdAt,value
2023-03-10T00:01:30.682Z,12.80
2023-03-10T00:04:00.022Z,12.80
2023-03-10T00:06:30.174Z,12.70
2023-03-10T00:08:59.690Z,12.70
2023-03-10T00:11:27.030Z,12.60
2023-03-10T00:13:54.323Z,12.70
2023-03-10T00:16:27.230Z,12.60
2023-03-10T00:18:54.924Z,12.60
2023-03-10T00:21:32.542Z,12.50
2023-03-10T00:24:01.523Z,12.50
2023-03-10T00:26:31.946Z,12.50
2023-03-10T00:28:59.265Z,12.40
2023-03-10T00:31:28.041Z,12.40
2023-03-10T00:33:56.458Z,12.40
2023-03-10T00:36:25.946Z,12.30
2023-03-10T00:38:56.760Z,12.30
2023-03-10T00:41:26.301Z,12.20
2023-03-10T00:43:58.543Z,12.20
2023-03-10T00:46:26.791Z,12.20
2023-03-10T00:48:54.292Z,12.20
2023-03-10T00:51:21.819Z,12.20
2023-03-10T00:53:49.829Z,12.10
2023-03-10T00:56:25.220Z,12.10
2023-03-10T00:58:58.273Z,12.10
2023-03-10T01:01:32.744Z,12.10
2023-03-10T01:04:06.549Z,12.00
2023-03-10T01:06:36.895Z,12.00
2023-03-10T01:09:04.788Z,12.00
2023-03-10T01:11:32.631Z,12.00
2023-03-10T01:14:03.389Z,11.90
2023-03-10T01:16:31.190Z,11.90
2023-03-10T01:19:03.524Z,11.90
2023-03-10T01:21:36.922Z,11.80
2023-03-10T01:24:08.280Z,11.80
2023-03-10T01:26:35.703Z,11.80
2023-03-10T01:29:03.148Z,11.70
2023-03-10T01:31:30.637Z,11.80
2023-03-10T01:33:58.046Z,11.70
2023-03-10T01:36:27.774Z,11.70
2023-03-10T01:38:56.562Z,11.70
2023-03-10T01:41:24.806Z,11.60
2023-03-10T01:43:56.782Z,11.60
2023-03-10T01:46:39.331Z,11.60
2023-03-10T01:49:12.670Z,11.60
2023-03-10T01:51:43.899Z,11.50
2023-03-10T01:54:16.733Z,11.50
2023-03-10T01:56:48.095Z,11.50
2023-03-10T01:59:15.709Z,11.50
2023-03-10T02:01:43.211Z,11.40
2023-03-10T02:04:27.308Z,11.40
2023-03-10T02:06:57.391Z,11.40
2023-03-10T02:09:25.842Z,11.40
2023-03-10T02:11:54.050Z,11.30
2023-03-10T02:14:21.375Z,11.30
2023-03-10T02:16:48.793Z,11.30
2023-03-10T02:19:46.062Z,11.30
2023-03-10T02:22:15.636Z,11.20
2023-03-10T02:24:49.202Z,11.20
2023-03-10T02:27:17.670Z,11.20
2023-03-10T02:30:13.386Z,11.20
2023-03-10T02:32:50.647Z,11.20
2023-03-10T02:35:18.432Z,11.20
2023-03-10T02:37:50.804Z,11.20
2023-03-10T02:40:31.984Z,11.10
2023-03-10T02:43:01.650Z,11.10
2023-03-10T02:45:32.516Z,11.10
2023-03-10T02:48:00.100Z,11.10
2023-03-10T02:50:35.967Z,11.10
2023-03-10T02:53:19.702Z,11.00
2023-03-10T02:55:49.952Z,11.00
2023-03-10T02:58:18.210Z,11.00
2023-03-10T03:00:47.810Z,11.00
2023-03-10T03:03:17.965Z,11.00
2023-03-10T03:05:45.797Z,10.90
2023-03-10T03:08:13.278Z,10.90
2023-03-10T03:10:43.399Z,10.90
2023-03-10T03:13:12.953Z,10.90
2023-03-10T03:15:40.585Z,10.90
2023-03-10T03:18:11.699Z,10.80
2023-03-10T03:20:41.070Z,10.80
2023-03-10T03:23:11.370Z,10.80
2023-03-10T03:25:40.954Z,10.70
2023-03-10T03:28:10.294Z,10.70
2023-03-10T03:30:37.934Z,10.70
2023-03-10T03:33:08.289Z,10.70
2023-03-10T03:35:37.964Z,10.70
2023-03-10T03:38:09.350Z,10.60
2023-03-10T03:40:42.617Z,10.60
2023-03-10T03:43:18.161Z,10.60
2023-03-10T03:45:46.483Z,10.60
2023-03-10T03:48:14.920Z,10.60
2023-03-10T03:50:44.961Z,10.60
2023-03-10T03:53:20.286Z,10.50
2023-03-10T03:55:48.564Z,10.50
2023-03-10T03:58:21.865Z,10.50
2023-03-10T04:00:52.167Z,10.50
2023-03-10T04:03:23.514Z,10.50
2023-03-10T04:05:54.650Z,10.50
2023-03-10T04:08:24.628Z,10.50
2023-03-10T04:10:59.717Z,10.50
2023-03-10T04:13:33.547Z,10.40
2023-03-10T04:16:04.751Z,10.40
2023-03-10T04:18:38.155Z,10.40
2023-03-10T04:21:16.073Z,10.40
2023-03-10T04:23:47.288Z,10.30
2023-03-10T04:26:22.456Z,10.30
2023-03-10T04:28:50.058Z,10.30
2023-03-10T04:31:19.746Z,10.30
2023-03-10T04:34:01.892Z,10.30
2023-03-10T04:36:40.947Z,10.20
2023-03-10T04:39:11.792Z,10.20
2023-03-10T04:41:39.885Z,10.20
2023-03-10T04:44:30.886Z,10.20
2023-03-10T04:47:04.442Z,10.20
2023-03-10T04:50:03.761Z,10.20
2023-03-10T04:52:33.668Z,10.10
2023-03-10T04:55:01.736Z,10.10
2023-03-10T04:57:32.144Z,10.10
2023-03-10T05:00:08.304Z,10.10
2023-03-10T05:02:42.014Z,10.10
2023-03-10T05:05:09.993Z,10.00
2023-03-10T05:07:40.805Z,10.00
2023-03-10T05:10:10.054Z,10.00
2023-03-10T05:12:43.192Z,10.00
2023-03-10T05:15:18.413Z,10.00
2023-03-10T05:17:50.192Z,10.00
2023-03-10T05:20:28.186Z,10.00
2023-03-10T05:23:01.051Z,10.00
2023-03-10T05:25:29.428Z,10.00
2023-03-10T05:27:57.172Z,10.00
2023-03-10T05:30:30.631Z,9.90
2023-03-10T05:33:01.482Z,9.90
2023-03-10T05:35:33.320Z,9.90
2023-03-10T05:38:06.478Z,9.90
2023-03-10T05:40:40.848Z,9.90
2023-03-10T05:43:08.304Z,9.80
2023-03-10T05:45:42.229Z,9.80
2023-03-10T05:48:14.415Z,9.80
2023-03-10T05:50:46.112Z,9.80
2023-03-10T05:53:19.204Z,9.80
2023-03-10T05:55:46.910Z,9.80
2023-03-10T05:58:21.978Z,9.80
2023-03-10T06:00:49.341Z,9.80
2023-03-10T06:03:27.337Z,9.80
2023-03-10T06:05:58.043Z,9.80
2023-03-10T06:08:30.566Z,9.80
2023-03-10T06:11:08.878Z,9.80
2023-03-10T06:13:40.083Z,9.80
2023-03-10T06:16:15.284Z,9.80
2023-03-10T06:18:43.209Z,9.80
2023-03-10T06:21:17.864Z,9.80
2023-03-10T06:23:49.765Z,9.90
2023-03-10T06:26:23.148Z,9.90
2023-03-10T06:28:56.776Z,9.90
2023-03-10T06:31:33.843Z,9.90
2023-03-10T06:34:04.315Z,10.00
2023-03-10T06:36:32.717Z,10.00
2023-03-10T06:39:02.385Z,10.00
2023-03-10T06:41:32.271Z,10.00
2023-03-10T06:44:02.667Z,10.00
2023-03-10T06:46:34.696Z,10.10
2023-03-10T06:49:05.042Z,10.10
2023-03-10T06:51:38.795Z,10.10
2023-03-10T06:54:14.617Z,10.10
2023-03-10T06:56:45.747Z,10.20
2023-03-10T06:59:16.009Z,10.20
2023-03-10T07:01:50.349Z,10.20
2023-03-10T07:04:26.438Z,10.20
2023-03-10T07:06:54.027Z,10.30
2023-03-10T07:09:24.696Z,10.30
2023-03-10T07:11:56.228Z,10.40
2023-03-10T07:14:26.690Z,10.50
2023-03-10T07:17:09.293Z,10.60
2023-03-10T07:19:40.147Z,10.70
2023-03-10T07:22:18.172Z,10.90
2023-03-10T07:24:52.341Z,10.90
2023-03-10T07:27:24.107Z,11.10
2023-03-10T07:29:54.319Z,11.10
2023-03-10T07:32:34.294Z,11.30
2023-03-10T07:35:02.554Z,11.40
2023-03-10T07:37:35.562Z,11.50
2023-03-10T07:40:10.918Z,11.50
2023-03-10T07:42:42.542Z,11.60
2023-03-10T07:45:18.522Z,11.70
2023-03-10T07:47:50.424Z,11.80
2023-03-10T07:50:20.007Z,11.90
2023-03-10T07:52:52.080Z,12.00
2023-03-10T07:55:22.053Z,12.10
2023-03-10T07:57:52.681Z,12.30
2023-03-10T08:00:20.244Z,12.30
2023-03-10T08:02:51.171Z,12.30
2023-03-10T08:05:20.651Z,12.40
2023-03-10T08:07:50.220Z,12.50
2023-03-10T08:10:20.318Z,12.40
2023-03-10T08:12:49.899Z,12.50
2023-03-10T08:15:22.284Z,12.40
2023-03-10T08:17:49.643Z,12.50
2023-03-10T08:20:22.623Z,12.50
2023-03-10T08:22:58.561Z,12.50
2023-03-10T08:25:28.115Z,12.50
2023-03-10T08:27:59.984Z,12.50
2023-03-10T08:30:30.927Z,12.50
2023-03-10T08:32:58.846Z,12.50
2023-03-10T08:35:26.760Z,12.50
2023-03-10T08:37:55.415Z,12.50
2023-03-10T08:40:26.500Z,12.50
2023-03-10T08:42:54.348Z,12.50
2023-03-10T08:45:22.214Z,12.50
2023-03-10T08:47:49.566Z,12.50
2023-03-10T08:50:17.228Z,12.50
2023-03-10T08:52:45.451Z,12.50
2023-03-10T08:55:17.271Z,12.50
2023-03-10T08:57:50.371Z,12.50
2023-03-10T09:00:18.638Z,12.50
2023-03-10T09:02:46.511Z,12.50
2023-03-10T09:05:23.751Z,12.50
2023-03-10T09:07:54.024Z,12.50
2023-03-10T09:10:22.871Z,12.50
2023-03-10T09:12:56.103Z,12.50
2023-03-10T09:15:29.128Z,12.60
2023-03-10T09:17:56.591Z,12.60
2023-03-10T09:20:29.381Z,12.60
2023-03-10T09:22:57.029Z,12.60
2023-03-10T09:25:24.615Z,12.70
2023-03-10T09:27:55.084Z,12.70
2023-03-10T09:30:30.423Z,12.70
2023-03-10T09:32:58.443Z,12.70
2023-03-10T09:35:26.178Z,12.70
2023-03-10T09:37:56.618Z,12.80
2023-03-10T09:40:24.755Z,12.80
2023-03-10T09:43:05.932Z,12.80
2023-03-10T09:46:06.485Z,12.90
2023-03-10T09:48:46.946Z,12.90
2023-03-10T09:51:24.633Z,13.00
2023-03-10T09:54:47.097Z,13.00
2023-03-10T09:57:16.449Z,13.00
2023-03-10T09:59:46.162Z,13.10
2023-03-10T10:02:21.365Z,13.10
2023-03-10T10:05:04.467Z,13.10
2023-03-10T10:07:45.676Z,13.10
2023-03-10T10:10:29.809Z,13.10
2023-03-10T10:13:11.764Z,13.20
2023-03-10T10:15:44.902Z,13.20
2023-03-10T10:18:47.945Z,13.20
2023-03-10T10:21:42.301Z,13.30
2023-03-10T10:24:28.125Z,13.30
2023-03-10T10:26:58.837Z,13.40
2023-03-10T10:29:43.873Z,13.40
2023-03-10T10:32:16.476Z,13.40
2023-03-10T10:34:49.882Z,13.40
2023-03-10T10:37:36.539Z,13.50
2023-03-10T10:40:31.331Z,13.50
2023-03-10T10:43:10.363Z,13.50
2023-03-10T10:45:42.991Z,13.50
2023-03-10T10:48:30.429Z,13.50
2023-03-10T10:51:01.076Z,13.60
2023-03-10T10:53:36.354Z,13.60
2023-03-10T10:56:18.216Z,13.60
2023-03-10T10:58:46.696Z,13.60
2023-03-10T11:01:17.543Z,13.60
2023-03-10T11:04:03.477Z,13.70
2023-03-10T11:06:35.214Z,13.70
2023-03-10T11:09:08.955Z,13.70
2023-03-10T11:11:59.107Z,13.80
2023-03-10T11:14:46.361Z,13.80
2023-03-10T11:17:25.434Z,13.90
2023-03-10T11:20:00.279Z,13.80
2023-03-10T11:22:49.893Z,13.90
2023-03-10T11:25:51.793Z,13.90
2023-03-10T11:28:23.563Z,14.00
2023-03-10T11:31:26.271Z,14.00
2023-03-10T11:34:19.449Z,14.10
2023-03-10T11:36:57.100Z,14.20
2023-03-10T11:39:47.825Z,14.20
2023-03-10T11:42:49.773Z,14.20
2023-03-10T11:45:29.508Z,14.30
2023-03-10T11:48:32.516Z,14.40
2023-03-10T11:51:08.717Z,14.40
2023-03-10T11:53:54.595Z,14.50
2023-03-10T11:56:40.320Z,14.60
2023-03-10T11:59:22.237Z,14.60
2023-03-10T12:02:00.251Z,14.70
2023-03-10T12:04:33.280Z,14.70
2023-03-10T12:07:12.506Z,14.80
2023-03-10T12:09:54.705Z,14.80
2023-03-10T12:12:42.885Z,14.80
2023-03-10T12:15:26.258Z,14.80
2023-03-10T12:18:04.742Z,14.90
2023-03-10T12:20:43.828Z,14.90
2023-03-10T12:23:23.467Z,14.90
2023-03-10T12:25:54.004Z,14.90
2023-03-10T12:28:28.261Z,15.00
2023-03-10T12:31:10.615Z,15.00
2023-03-10T12:33:49.263Z,15.00
2023-03-10T12:36:27.782Z,15.10
2023-03-10T12:39:22.025Z,15.10
2023-03-10T12:41:52.132Z,15.20
2023-03-10T12:44:41.541Z,15.30
2023-03-10T12:47:08.872Z,15.30
2023-03-10T12:49:55.843Z,15.40
2023-03-10T12:52:51.482Z,15.50
2023-03-10T12:55:21.308Z,15.60
2023-03-10T12:58:01.087Z,15.70
2023-03-10T13:00:58.564Z,15.70
2023-03-10T13:03:32.146Z,15.80
2023-03-10T13:05:59.483Z,15.90
2023-03-10T13:08:41.367Z,15.90
2023-03-10T13:11:36.128Z,15.90
2023-03-10T13:14:11.116Z,16.00
2023-03-10T13:16:38.522Z,16.00
2023-03-10T13:19:06.427Z,16.00
2023-03-10T13:21:37.658Z,16.00
2023-03-10T13:24:26.873Z,16.00
2023-03-10T13:27:14.013Z,16.00
2023-03-10T13:30:04.351Z,16.00
2023-03-10T13:32:32.950Z,16.00
2023-03-10T13:35:23.485Z,16.00
2023-03-10T13:38:15.698Z,15.90
2023-03-10T13:40:49.456Z,15.90
2023-03-10T13:43:34.595Z,15.90
2023-03-10T13:46:09.596Z,15.80
2023-03-10T13:48:39.688Z,15.80
2023-03-10T13:51:32.402Z,15.70
2023-03-10T13:54:20.576Z,15.70
2023-03-10T13:56:51.092Z,15.60
2023-03-10T13:59:29.497Z,15.60
2023-03-10T14:01:59.749Z,15.50
2023-03-10T14:04:45.420Z,15.50
2023-03-10T14:07:30.676Z,15.40
2023-03-10T14:10:06.410Z,15.40
2023-03-10T14:12:36.598Z,15.30
2023-03-10T14:15:22.537Z,15.30
2023-03-10T14:17:52.941Z,15.30
2023-03-10T14:20:29.937Z,15.30
2023-03-10T14:22:57.519Z,15.30
2023-03-10T14:25:25.921Z,15.20
2023-03-10T14:28:06.738Z,15.20
2023-03-10T14:30:36.423Z,15.20
2023-03-10T14:33:11.384Z,15.30
2023-03-10T14:35:39.773Z,15.30
2023-03-10T14:38:07.435Z,15.30
2023-03-10T14:40:42.418Z,15.30
2023-03-10T14:43:15.629Z,15.30
2023-03-10T14:45:45.437Z,15.30
2023-03-10T14:48:21.342Z,15.40
2023-03-10T14:50:49.401Z,15.40
2023-03-10T14:53:20.309Z,15.50
2023-03-10T14:55:50.364Z,15.40
2023-03-10T14:58:24.533Z,15.50
2023-03-10T15:00:52.193Z,15.50
2023-03-10T15:03:20.194Z,15.50
2023-03-10T15:05:49.758Z,15.50
2023-03-10T15:08:19.644Z,15.50
2023-03-10T15:10:50.718Z,15.50
2023-03-10T15:13:24.074Z,15.60
2023-03-10T15:15:51.845Z,15.60
2023-03-10T15:18:21.776Z,15.60
2023-03-10T15:20:49.633Z,15.60
2023-03-10T15:23:20.013Z,15.60
2023-03-10T15:25:47.779Z,15.60
2023-03-10T15:28:16.685Z,15.60
2023-03-10T15:30:44.786Z,15.70
2023-03-10T15:33:12.803Z,15.70
2023-03-10T15:35:42.228Z,15.70
2023-03-10T15:38:13.693Z,15.70
2023-03-10T15:40:42.769Z,15.70
2023-03-10T15:43:11.158Z,15.70
2023-03-10T15:45:43.173Z,15.70
2023-03-10T15:48:12.213Z,15.70
2023-03-10T15:50:47.344Z,15.70
2023-03-10T15:53:20.989Z,15.70
2023-03-10T15:55:52.683Z,15.70
2023-03-10T15:58:20.235Z,15.70
2023-03-10T16:00:47.964Z,15.70
2023-03-10T16:03:18.362Z,15.70
2023-03-10T16:05:49.588Z,15.70
2023-03-10T16:08:19.057Z,15.60
2023-03-10T16:10:55.801Z,15.70
2023-03-10T16:13:23.921Z,15.60
2023-03-10T16:15:52.686Z,15.60
2023-03-10T16:18:20.111Z,15.70
2023-03-10T16:20:59.114Z,15.70
2023-03-10T16:23:28.191Z,15.70
2023-03-10T16:26:17.744Z,15.70
2023-03-10T16:28:50.890Z,15.70
2023-03-10T16:31:21.532Z,15.70
2023-03-10T16:33:51.935Z,15.70
2023-03-10T16:36:28.257Z,15.70
2023-03-10T16:38:58.244Z,15.70
2023-03-10T16:41:29.935Z,15.70
2023-03-10T16:43:58.583Z,15.70
2023-03-10T16:46:30.408Z,15.70
2023-03-10T16:49:02.030Z,15.70
2023-03-10T16:51:38.349Z,15.70
2023-03-10T16:54:14.049Z,15.70
2023-03-10T16:56:47.892Z,15.70
2023-03-10T16:59:21.099Z,15.60
2023-03-10T17:01:50.630Z,15.60
2023-03-10T17:04:19.896Z,15.60
2023-03-10T17:06:49.239Z,15.60
2023-03-10T17:09:18.045Z,15.60
2023-03-10T17:11:55.068Z,15.50
2023-03-10T17:14:24.258Z,15.50
2023-03-10T17:16:55.872Z,15.50
2023-03-10T17:19:30.629Z,15.50
2023-03-10T17:22:00.778Z,15.50
2023-03-10T17:24:29.677Z,15.50
2023-03-10T17:27:00.965Z,15.40
2023-03-10T17:29:29.901Z,15.40
2023-03-10T17:32:03.259Z,15.40
2023-03-10T17:34:31.711Z,15.40
2023-03-10T17:37:02.629Z,15.40
2023-03-10T17:39:32.015Z,15.30
2023-03-10T17:42:05.021Z,15.30
2023-03-10T17:44:36.058Z,15.30
2023-03-10T17:47:06.547Z,15.30
2023-03-10T17:49:35.378Z,15.20
2023-03-10T17:52:03.563Z,15.20
2023-03-10T17:54:35.194Z,15.10
2023-03-10T17:57:03.632Z,15.10
2023-03-10T17:59:38.218Z,15.10
2023-03-10T18:02:06.881Z,15.00
2023-03-10T18:04:41.596Z,15.00
2023-03-10T18:07:09.723Z,14.90
2023-03-10T18:09:38.892Z,14.80
2023-03-10T18:12:08.102Z,14.80
2023-03-10T18:14:38.986Z,14.70
2023-03-10T18:17:07.699Z,14.70
2023-03-10T18:19:36.205Z,14.60
2023-03-10T18:22:08.723Z,14.60
2023-03-10T18:24:41.556Z,14.60
2023-03-10T18:27:09.254Z,14.50
2023-03-10T18:29:36.793Z,14.50
2023-03-10T18:32:04.828Z,14.50
2023-03-10T18:34:32.614Z,14.50
2023-03-10T18:37:03.763Z,14.40
2023-03-10T18:39:31.709Z,14.40
2023-03-10T18:42:01.540Z,14.40
2023-03-10T18:44:30.135Z,14.40
2023-03-10T18:47:12.212Z,14.40
2023-03-10T18:49:48.649Z,14.40
2023-03-10T18:52:16.940Z,14.40
2023-03-10T18:54:46.834Z,14.30
2023-03-10T18:57:15.614Z,14.30
2023-03-10T18:59:46.668Z,14.30
2023-03-10T19:02:18.365Z,14.30
2023-03-10T19:04:48.044Z,14.30
2023-03-10T19:07:22.029Z,14.30
2023-03-10T19:09:55.621Z,14.30
2023-03-10T19:12:26.676Z,14.20
2023-03-10T19:15:08.260Z,14.20
2023-03-10T19:17:38.075Z,14.20
2023-03-10T19:20:12.965Z,14.20
2023-03-10T19:22:44.319Z,14.10
2023-03-10T19:25:15.181Z,14.20
2023-03-10T19:27:43.923Z,14.10
2023-03-10T19:30:16.988Z,14.10
2023-03-10T19:32:45.957Z,14.10
2023-03-10T19:35:18.781Z,14.10
2023-03-10T19:37:49.378Z,14.10
2023-03-10T19:40:21.042Z,14.10
2023-03-10T19:42:48.500Z,14.10
2023-03-10T19:45:18.107Z,14.10
2023-03-10T19:47:46.841Z,14.10
2023-03-10T19:50:16.520Z,14.00
2023-03-10T19:52:46.074Z,14.00
2023-03-10T19:55:23.398Z,14.10
2023-03-10T19:57:53.827Z,14.00
2023-03-10T20:00:27.830Z,14.00
2023-03-10T20:02:55.729Z,14.00
2023-03-10T20:05:25.537Z,14.00
2023-03-10T20:07:53.029Z,14.00
2023-03-10T20:10:22.961Z,14.00
2023-03-10T20:12:55.942Z,14.00
2023-03-10T20:15:23.286Z,14.00
2023-03-10T20:17:50.922Z,14.00
2023-03-10T20:20:20.279Z,14.00
2023-03-10T20:22:51.035Z,14.00
2023-03-10T20:25:22.709Z,14.00
2023-03-10T20:27:51.628Z,14.00
2023-03-10T20:30:25.156Z,14.00
2023-03-10T20:32:52.689Z,14.00
2023-03-10T20:35:22.578Z,14.00
2023-03-10T20:37:49.942Z,13.90
2023-03-10T20:40:22.957Z,13.90
2023-03-10T20:42:57.340Z,13.90
2023-03-10T20:45:24.859Z,13.90
2023-03-10T20:47:53.303Z,13.90
2023-03-10T20:50:21.072Z,13.90
2023-03-10T20:52:48.882Z,13.90
2023-03-10T20:55:25.772Z,13.90
2023-03-10T20:57:57.791Z,13.90
2023-03-10T21:00:31.854Z,13.80
2023-03-10T21:03:00.566Z,13.90
2023-03-10T21:05:28.397Z,13.90
2023-03-10T21:07:56.415Z,13.90
2023-03-10T21:10:28.391Z,13.90
2023-03-10T21:13:01.188Z,13.90
2023-03-10T21:15:28.464Z,13.90
2023-03-10T21:17:56.626Z,13.90
2023-03-10T21:20:24.588Z,13.90
2023-03-10T21:22:54.321Z,13.90
2023-03-10T21:25:24.574Z,13.80
2023-03-10T21:27:56.358Z,13.80
2023-03-10T21:30:24.080Z,13.80
2023-03-10T21:32:51.558Z,13.80
2023-03-10T21:35:18.947Z,13.70
2023-03-10T21:37:49.734Z,13.70
2023-03-10T21:40:21.476Z,13.70
2023-03-10T21:42:49.248Z,13.70
2023-03-10T21:45:23.091Z,13.70
2023-03-10T21:47:53.508Z,13.70
2023-03-10T21:50:23.204Z,13.60
2023-03-10T21:52:50.956Z,13.60
2023-03-10T21:55:24.750Z,13.60
2023-03-10T21:57:52.395Z,13.50
2023-03-10T22:00:23.071Z,13.50
2023-03-10T22:02:57.583Z,13.50
2023-03-10T22:05:27.338Z,13.50
2023-03-10T22:07:56.524Z,13.50
2023-03-10T22:10:26.385Z,13.50
2023-03-10T22:12:53.652Z,13.50
2023-03-10T22:15:23.710Z,13.40
2023-03-10T22:17:54.671Z,13.40
2023-03-10T22:20:30.862Z,13.40
2023-03-10T22:22:58.348Z,13.40
2023-03-10T22:25:26.662Z,13.40
2023-03-10T22:27:55.995Z,13.40
2023-03-10T22:30:24.919Z,13.40
2023-03-10T22:32:54.388Z,13.40
2023-03-10T22:35:23.010Z,13.40
2023-03-10T22:38:03.703Z,13.30
2023-03-10T22:40:37.951Z,13.30
2023-03-10T22:43:13.736Z,13.30
2023-03-10T22:46:02.399Z,13.30
2023-03-10T22:48:39.879Z,13.30
2023-03-10T22:51:22.639Z,13.30
2023-03-10T22:53:56.017Z,13.30
2023-03-10T22:56:28.211Z,13.30
2023-03-10T22:59:04.635Z,13.30
2023-03-10T23:01:39.086Z,13.30
2023-03-10T23:04:25.840Z,13.30
2023-03-10T23:06:57.589Z,13.30
2023-03-10T23:09:32.563Z,13.30
2023-03-10T23:14:54.682Z,13.30
2023-03-10T23:17:24.929Z,13.20
2023-03-10T23:19:59.395Z,13.10
2023-03-10T23:22:29.487Z,13.00
2023-03-10T23:24:57.004Z,12.90
2023-03-10T23:27:27.234Z,12.90
2023-03-10T23:29:56.800Z,12.80
2023-03-10T23:32:27.171Z,12.70
2023-03-10T23:34:54.487Z,12.60
2023-03-10T23:37:21.792Z,12.60
2023-03-10T23:39:55.635Z,12.60
2023-03-10T23:42:28.577Z,12.50
2023-03-10T23:44:58.053Z,12.40
2023-03-10T23:47:30.232Z,12.40
2023-03-10T23:50:00.846Z,12.30
2023-03-10T23:52:30.788Z,12.30
2023-03-10T23:54:58.410Z,12.20
2023-03-10T23:57:31.294Z,12.20
